WetterOnline ( https://www.wetteronline.de )

Wetter aktuell Heidelberg

Aktuelles Wetter: Mannheim (100m)

6-stündlich | Neueste Meldungen
Ortszeit Temperatur Wetter
Sa, 02.03. 13:00 14.0° C leicht bewölkt
Sa, 02.03. 7:00 4.8° C leicht bewölkt
Sa, 02.03. 1:00 5.1° C bedeckt
Fr, 01.03. 19:00 7.5° C wolkig
Fr, 01.03. 13:00 9.7° C bedeckt
Fr, 01.03. 7:00 5.6° C wolkig
Fr, 01.03. 1:00 2.0° C wolkenlos
Do, 29.02. 19:00 7.1° C wolkenlos
Ortszeit Temperatur Wetter
Sa, 02.03. 18:10 12.9° C bedeckt
Sa, 02.03. 18:00 13.7° C bedeckt
Sa, 02.03. 17:50 13.7° C bedeckt
Sa, 02.03. 17:40 13.7° C bedeckt
Sa, 02.03. 17:30 14.0° C bedeckt
Sa, 02.03. 17:20 14.0° C bedeckt
Sa, 02.03. 17:00 14.3° C bewölkt
Sa, 02.03. 16:30 15.0° C wolkig
Sa, 02.03. 16:00 15.7° C wolkig
Sa, 02.03. 15:30 15.2° C wolkenlos
Ortszeit Relative Feuchte Sichtweite
Sa, 02.03. 13:00 49% 65 km
Sa, 02.03. 7:00 88% 20 km
Sa, 02.03. 1:00 90% 17 km
Fr, 01.03. 19:00 78% 50 km
Fr, 01.03. 13:00 69% 65 km
Fr, 01.03. 7:00 85% 12 km
Fr, 01.03. 1:00 93% 10 km
Do, 29.02. 19:00 78% 20 km
Ortszeit Relative Feuchte Sichtweite
Sa, 02.03. 18:10 60% -
Sa, 02.03. 18:00 55% 45 km
Sa, 02.03. 17:50 55% -
Sa, 02.03. 17:40 56% -
Sa, 02.03. 17:30 54% 60 km
Sa, 02.03. 17:20 54% -
Sa, 02.03. 17:00 53% >70 km
Sa, 02.03. 16:30 48% >70 km
Sa, 02.03. 16:00 47% 65 km
Sa, 02.03. 15:30 48% 60 km
Ortszeit Niederschlagsmenge Niederschlagsart
Sa, 02.03. 13:00 0.0 l/m2 in 6 Std. -
Sa, 02.03. 7:00 0.0 l/m2 in 12 Std. -
Sa, 02.03. 1:00 0.0 l/m2 in 6 Std. -
Fr, 01.03. 19:00 0.0 l/m2 in 12 Std. -
Fr, 01.03. 13:00 0.0 l/m2 in 6 Std. -
Fr, 01.03. 7:00 0.0 l/m2 in 12 Std. -
Fr, 01.03. 1:00 0.0 l/m2 in 6 Std. -
Do, 29.02. 19:00 0.0 l/m2 in 12 Std. -
Ortszeit Niederschlagsmenge Niederschlagsart
Sa, 02.03. 18:10 keine Meldung -
Sa, 02.03. 18:00 0.0 l/m2 in 1 Std. -
Sa, 02.03. 17:50 keine Meldung -
Sa, 02.03. 17:40 keine Meldung -
Sa, 02.03. 17:30 0.0 l/m2 in 30 Min -
Sa, 02.03. 17:20 keine Meldung -
Sa, 02.03. 17:00 0.0 l/m2 in 1 Std. -
Sa, 02.03. 16:30 0.0 l/m2 in 30 Min -
Sa, 02.03. 16:00 0.0 l/m2 in 1 Std. -
Sa, 02.03. 15:30 0.0 l/m2 in 30 Min -
Ortszeit Stärke Spitze Richtung
km/h Bft. km/h Grad Sektor
Sa, 02.03. 13:00 11 2 18 150° SO
Sa, 02.03. 7:00 11 2 18 180° S
Sa, 02.03. 1:00 6 1 13 150° SO
Fr, 01.03. 19:00 7 2 25 140° SO
Fr, 01.03. 13:00 14 3 25 210° SW
Fr, 01.03. 7:00 13 3 20 140° SO
Fr, 01.03. 1:00 4 1 7 240° SW
Do, 29.02. 19:00 2 1 19 280° W
Ortszeit Stärke Spitze Richtung
km/h Bft. km/h Grad Sektor
Sa, 02.03. 18:10 4 1 - 60° NO
Sa, 02.03. 18:00 7 2 11 90° O
Sa, 02.03. 17:50 7 2 - 90° O
Sa, 02.03. 17:40 6 1 - 80° O
Sa, 02.03. 17:30 4 1 11 80° O
Sa, 02.03. 17:20 4 1 - 80° O
Sa, 02.03. 17:00 7 2 18 120° SO
Sa, 02.03. 16:30 9 2 19 130° SO
Sa, 02.03. 16:00 11 2 22 130° SO
Sa, 02.03. 15:30 13 3 20 130° SO
Ortszeit Untergrenze Bedeckung Gattung
total tief tief mittel hoch
Sa, 02.03. 13:00 8400 m 7/8 0/8 - - -
Sa, 02.03. 7:00 1800 m 4/8 1/8 - - -
Sa, 02.03. 1:00 5700 m 8/8 8/8 - - -
Fr, 01.03. 19:00 7500 m 8/8 0/8 - - -
Fr, 01.03. 13:00 840 m 8/8 8/8 - - -
Fr, 01.03. 7:00 2400 m 8/8 3/8 - - -
Fr, 01.03. 1:00 - 0/8 0/8 - - -
Do, 29.02. 19:00 - 0/8 0/8 - - -
Ortszeit Bedeckungsgrad in Achtel und Wolkenuntergrenze
Sa, 02.03. 18:10 8
Sa, 02.03. 18:00 7(3900m) 8(4800m)
Sa, 02.03. 17:50 7(3900m) 8(4800m)
Sa, 02.03. 17:40 8
Sa, 02.03. 17:30 7(5400m) 8(6000m)
Sa, 02.03. 17:20 7(5400m) 8(6000m)
Sa, 02.03. 17:00 2(5100m) 7(6000m)
Sa, 02.03. 16:30 1(4500m) 7(7800m)
Sa, 02.03. 16:00 2(4800m) 6(8100m) 7(9000m)
Sa, 02.03. 15:30 keine Wolken
Ortszeit Luftdruck NN (hPa) Tendenz (hPa in 3 Std.)
Sa, 02.03. 13:00 1004 - 1,2
Sa, 02.03. 7:00 1005 + 0,2
Sa, 02.03. 1:00 1006 - 0,8
Fr, 01.03. 19:00 1007 - 0,3
Fr, 01.03. 13:00 1008 + 0,3
Fr, 01.03. 7:00 1008 + 0,6
Fr, 01.03. 1:00 1008 - 0,8
Do, 29.02. 19:00 1009 - 1,9
Ortszeit Luftdruck NN (hPa) Tendenz (hPa in 3 Std.)
Sa, 02.03. 18:10 1002 keine Meldung
Sa, 02.03. 18:00 1002 - 1,1
Sa, 02.03. 17:50 1002 keine Meldung
Sa, 02.03. 17:40 1002 keine Meldung
Sa, 02.03. 17:30 1002 - 1,2
Sa, 02.03. 17:20 1002 keine Meldung
Sa, 02.03. 17:00 1002 - 1,4
Sa, 02.03. 16:30 1002 - 1,6
Sa, 02.03. 16:00 1003 - 1,7
Sa, 02.03. 15:30 1003 - 1,8
Ortszeit Schneehöhe (cm)
Sa, 02.03. 13:00 0
Sa, 02.03. 7:00 0
Sa, 02.03. 1:00 0
Fr, 01.03. 19:00 0
Fr, 01.03. 13:00 0
Fr, 01.03. 7:00 0
Fr, 01.03. 1:00 0
Do, 29.02. 19:00 0
Ortszeit Schneehöhe (cm)
Sa, 02.03. 18:10 -
Sa, 02.03. 18:00 0
Sa, 02.03. 17:50 0
Sa, 02.03. 17:40 -
Sa, 02.03. 17:30 0
Sa, 02.03. 17:20 0
Sa, 02.03. 17:00 0
Sa, 02.03. 16:30 0
Sa, 02.03. 16:00 0
Sa, 02.03. 15:30 0
Link zu dieser Seite / Seite empfehlen

Das Wetter in ...